TAF

Aerodrome Forecast TAF

TAF description (Slovak)

27.05.2020 - 02:00 UTC

TAF LZSL 270200Z 2703/2712 36005KT 9999 FEW050
    TEMPO 2710/2712 01015G25KT SHRA FEW030TCU SCT045=
TAF LZZI 270200Z 2703/2712 04005KT 9999 SCT025 BKN045
    TEMPO 2710/2712 SHRA FEW020TCU BKN040=

26.05.2020 - 05:00 UTC (Včera)

TAF LZIB 260500Z 2606/2706 34010KT 9999 FEW045
    TEMPO 2609/2616 35015G25KT -SHRA FEW025CB BKN040
    PROB40 TEMPO 2611/2614 TSRA SCT025CB BKN040
    BECMG 2613/2615 CAVOK=
TAF LZKZ 260500Z 2606/2706 01010KT 9999 FEW025 SCT060
    TEMPO 2608/2700 02015G25KT
    TEMPO 2612/2618 -SHRA SCT025CB BKN040=
TAF LZTT 260500Z 2606/2706 25005KT 9999 FEW025 SCT060
    PROB40 TEMPO 2606/2608 5000 -SHRA SCT020 BKN050
    BECMG 2606/2608 05005KT
    TEMPO 2612/2706 -SHRA FEW025CB BKN045
    PROB40 TEMPO 2613/2616 04015G25KT TSRA SCT025CB BKN040=

26.05.2020 - 02:00 UTC (Včera)

TAF LZSL 260200Z 2603/2612 36008KT CAVOK
    TEMPO 2607/2612 9999 SCT045 BKN060=
TAF LZZI 260200Z 2603/2612 04005KT 9999 SCT030 BKN055
    TEMPO 2603/2607 -RA SCT003 BKN035
    TEMPO 2608/2612 SHRA SCT025TCU BKN035=

skok na menu ↑


skok na začiatok stránky ↑